Soradoville, Pennsylvania
Current Conditions -  °F | °C
As of 11:35 PM on Friday 24 Oct 2014 (Local Time) from KUNV Reporting Station
Clear Clear  
Wind Chill: 47°   Ceiling: Unl
Heat Index: 49°   Visibility: 10mi
Dew Point: 38°   Wind: 5mph
Humidity: 66%   Direction: 250°WSW
Pressure: 29.97"   Gusts: NA
Location:  40.7125°N, 77.3707°W
Report Text: KUNV 250335Z AUTO 25004KT 10SM CLR 09/03 A2997 RMK AO2 T00940033
Loading
Personal Weather Stations






























Interactive Weather Map
Tropical Storm Tracking
New forecast layout! Learn more

10-Day Weather Forecast

Advertisements
Track Severe Weather on mobile